sensor_id;sensor_type;location;lat;lon;timestamp;temperature;humidity
64501;DHT22;50874;24.150;-110.320;2022-10-16T00:01:34;31.30;85.30
64501;DHT22;50874;24.150;-110.320;2022-10-16T00:04:01;31.20;85.30
64501;DHT22;50874;24.150;-110.320;2022-10-16T00:06:29;31.00;85.50
64501;DHT22;50874;24.150;-110.320;2022-10-16T00:08:55;30.80;87.80
64501;DHT22;50874;24.150;-110.320;2022-10-16T00:11:25;30.80;89.60
64501;DHT22;50874;24.150;-110.320;2022-10-16T00:13:57;30.50;87.20
64501;DHT22;50874;24.150;-110.320;2022-10-16T00:16:24;30.20;87.50
64501;DHT22;50874;24.150;-110.320;2022-10-16T00:18:50;30.00;88.10
64501;DHT22;50874;24.150;-110.320;2022-10-16T00:21:20;29.90;88.60
64501;DHT22;50874;24.150;-110.320;2022-10-16T00:23:50;29.70;88.90
64501;DHT22;50874;24.150;-110.320;2022-10-16T00:26:18;29.60;89.20
64501;DHT22;50874;24.150;-110.320;2022-10-16T00:28:49;29.50;89.50
64501;DHT22;50874;24.150;-110.320;2022-10-16T00:31:18;29.40;90.00
64501;DHT22;50874;24.150;-110.320;2022-10-16T00:33:45;29.20;90.10
64501;DHT22;50874;24.150;-110.320;2022-10-16T00:36:14;29.00;90.30
64501;DHT22;50874;24.150;-110.320;2022-10-16T00:38:41;28.90;90.50
64501;DHT22;50874;24.150;-110.320;2022-10-16T00:41:14;28.80;90.60
64501;DHT22;50874;24.150;-110.320;2022-10-16T00:43:46;28.70;90.70
64501;DHT22;50874;24.150;-110.320;2022-10-16T00:49:16;28.60;90.80
64501;DHT22;50874;24.150;-110.320;2022-10-16T00:51:51;28.50;90.80
64501;DHT22;50874;24.150;-110.320;2022-10-16T00:54:24;28.30;91.10
64501;DHT22;50874;24.150;-110.320;2022-10-16T00:56:51;28.20;91.20
64501;DHT22;50874;24.150;-110.320;2022-10-16T00:59:26;28.00;91.40
64501;DHT22;50874;24.150;-110.320;2022-10-16T01:01:54;28.00;91.50
64501;DHT22;50874;24.150;-110.320;2022-10-16T01:04:22;27.90;91.50
64501;DHT22;50874;24.150;-110.320;2022-10-16T01:09:30;27.90;91.60
64501;DHT22;50874;24.150;-110.320;2022-10-16T01:12:33;27.90;91.60
64501;DHT22;50874;24.150;-110.320;2022-10-16T01:15:25;27.70;91.90
64501;DHT22;50874;24.150;-110.320;2022-10-16T01:31:10;27.10;92.90
64501;DHT22;50874;24.150;-110.320;2022-10-16T01:33:43;27.00;93.00
64501;DHT22;50874;24.150;-110.320;2022-10-16T01:36:23;27.00;93.20
64501;DHT22;50874;24.150;-110.320;2022-10-16T01:38:53;26.90;93.30
64501;DHT22;50874;24.150;-110.320;2022-10-16T01:41:30;26.80;93.40
64501;DHT22;50874;24.150;-110.320;2022-10-16T01:44:04;26.80;93.50
64501;DHT22;50874;24.150;-110.320;2022-10-16T01:46:32;26.60;93.60
64501;DHT22;50874;24.150;-110.320;2022-10-16T01:49:02;26.50;94.20
64501;DHT22;50874;24.150;-110.320;2022-10-16T01:51:29;26.30;94.20
64501;DHT22;50874;24.150;-110.320;2022-10-16T01:53:58;26.20;94.40
64501;DHT22;50874;24.150;-110.320;2022-10-16T01:56:25;26.00;94.70
64501;DHT22;50874;24.150;-110.320;2022-10-16T01:59:02;26.10;94.70
64501;DHT22;50874;24.150;-110.320;2022-10-16T02:01:33;26.00;94.80
64501;DHT22;50874;24.150;-110.320;2022-10-16T02:04:04;26.00;94.90
64501;DHT22;50874;24.150;-110.320;2022-10-16T02:06:33;26.00;95.00
64501;DHT22;50874;24.150;-110.320;2022-10-16T02:09:00;26.00;95.00
64501;DHT22;50874;24.150;-110.320;2022-10-16T02:11:26;26.00;95.10
64501;DHT22;50874;24.150;-110.320;2022-10-16T02:14:04;26.00;95.20
64501;DHT22;50874;24.150;-110.320;2022-10-16T02:16:45;25.80;95.30
64501;DHT22;50874;24.150;-110.320;2022-10-16T02:19:15;25.80;95.40
64501;DHT22;50874;24.150;-110.320;2022-10-16T02:21:57;25.80;95.50
64501;DHT22;50874;24.150;-110.320;2022-10-16T02:24:29;25.80;95.60
64501;DHT22;50874;24.150;-110.320;2022-10-16T02:27:03;25.80;95.60
64501;DHT22;50874;24.150;-110.320;2022-10-16T02:29:38;25.70;95.80
64501;DHT22;50874;24.150;-110.320;2022-10-16T02:32:07;25.70;95.90
64501;DHT22;50874;24.150;-110.320;2022-10-16T02:34:35;25.80;95.90
64501;DHT22;50874;24.150;-110.320;2022-10-16T02:37:04;25.70;96.00
64501;DHT22;50874;24.150;-110.320;2022-10-16T02:39:31;25.80;96.00
64501;DHT22;50874;24.150;-110.320;2022-10-16T02:41:57;25.70;96.00
64501;DHT22;50874;24.150;-110.320;2022-10-16T02:44:24;25.80;96.10
64501;DHT22;50874;24.150;-110.320;2022-10-16T02:46:50;25.60;96.10
64501;DHT22;50874;24.150;-110.320;2022-10-16T02:49:17;25.60;96.10
64501;DHT22;50874;24.150;-110.320;2022-10-16T02:51:44;25.60;96.30
64501;DHT22;50874;24.150;-110.320;2022-10-16T02:54:10;25.50;96.40
64501;DHT22;50874;24.150;-110.320;2022-10-16T02:56:37;25.40;96.50
64501;DHT22;50874;24.150;-110.320;2022-10-16T02:59:03;25.40;96.50
64501;DHT22;50874;24.150;-110.320;2022-10-16T03:01:30;25.50;96.80
64501;DHT22;50874;24.150;-110.320;2022-10-16T03:03:59;25.40;96.60
64501;DHT22;50874;24.150;-110.320;2022-10-16T03:06:26;25.30;96.70
64501;DHT22;50874;24.150;-110.320;2022-10-16T03:08:52;25.30;96.80
64501;DHT22;50874;24.150;-110.320;2022-10-16T03:11:19;25.20;96.90
64501;DHT22;50874;24.150;-110.320;2022-10-16T03:13:45;25.10;97.00
64501;DHT22;50874;24.150;-110.320;2022-10-16T03:16:11;25.20;97.10
64501;DHT22;50874;24.150;-110.320;2022-10-16T03:18:38;25.10;97.20
64501;DHT22;50874;24.150;-110.320;2022-10-16T03:21:04;25.10;97.30
64501;DHT22;50874;24.150;-110.320;2022-10-16T03:23:31;25.10;97.30
64501;DHT22;50874;24.150;-110.320;2022-10-16T03:25:57;25.00;97.30
64501;DHT22;50874;24.150;-110.320;2022-10-16T03:28:24;25.00;97.40
64501;DHT22;50874;24.150;-110.320;2022-10-16T03:30:51;25.00;97.40
64501;DHT22;50874;24.150;-110.320;2022-10-16T03:33:17;24.90;97.50
64501;DHT22;50874;24.150;-110.320;2022-10-16T03:35:51;24.80;97.70
64501;DHT22;50874;24.150;-110.320;2022-10-16T03:38:19;24.70;97.90
64501;DHT22;50874;24.150;-110.320;2022-10-16T03:40:46;24.60;98.10
64501;DHT22;50874;24.150;-110.320;2022-10-16T03:43:13;24.60;98.30
64501;DHT22;50874;24.150;-110.320;2022-10-16T03:45:39;24.60;98.40
64501;DHT22;50874;24.150;-110.320;2022-10-16T03:48:06;24.50;98.50
64501;DHT22;50874;24.150;-110.320;2022-10-16T03:50:32;24.50;98.60
64501;DHT22;50874;24.150;-110.320;2022-10-16T03:52:58;24.50;98.80
64501;DHT22;50874;24.150;-110.320;2022-10-16T03:55:25;24.50;98.80
64501;DHT22;50874;24.150;-110.320;2022-10-16T03:57:51;24.50;98.90
64501;DHT22;50874;24.150;-110.320;2022-10-16T04:00:18;24.50;99.00
64501;DHT22;50874;24.150;-110.320;2022-10-16T04:02:45;24.40;99.10
64501;DHT22;50874;24.150;-110.320;2022-10-16T04:05:11;24.40;99.20
64501;DHT22;50874;24.150;-110.320;2022-10-16T04:07:38;24.40;99.30
64501;DHT22;50874;24.150;-110.320;2022-10-16T04:10:04;24.30;99.40
64501;DHT22;50874;24.150;-110.320;2022-10-16T04:12:31;24.20;99.60
64501;DHT22;50874;24.150;-110.320;2022-10-16T04:14:58;24.20;99.80
64501;DHT22;50874;24.150;-110.320;2022-10-16T04:17:24;24.10;99.90
64501;DHT22;50874;24.150;-110.320;2022-10-16T04:19:50;24.20;99.90
64501;DHT22;50874;24.150;-110.320;2022-10-16T04:22:17;24.00;99.90
64501;DHT22;50874;24.150;-110.320;2022-10-16T04:24:43;24.00;99.90
64501;DHT22;50874;24.150;-110.320;2022-10-16T04:27:10;24.10;99.90
64501;DHT22;50874;24.150;-110.320;2022-10-16T04:29:36;24.00;99.90
64501;DHT22;50874;24.150;-110.320;2022-10-16T04:32:03;24.00;99.90
64501;DHT22;50874;24.150;-110.320;2022-10-16T04:34:29;24.00;99.90
64501;DHT22;50874;24.150;-110.320;2022-10-16T04:36:56;24.00;99.90
64501;DHT22;50874;24.150;-110.320;2022-10-16T04:39:22;24.00;99.90
64501;DHT22;50874;24.150;-110.320;2022-10-16T04:41:49;23.90;99.90
64501;DHT22;50874;24.150;-110.320;2022-10-16T04:44:15;23.90;99.90
64501;DHT22;50874;24.150;-110.320;2022-10-16T04:46:41;23.90;99.90
64501;DHT22;50874;24.150;-110.320;2022-10-16T04:49:08;23.80;99.90
64501;DHT22;50874;24.150;-110.320;2022-10-16T04:51:34;23.80;99.90
64501;DHT22;50874;24.150;-110.320;2022-10-16T04:54:01;23.80;99.90
64501;DHT22;50874;24.150;-110.320;2022-10-16T04:56:27;23.80;99.90
64501;DHT22;50874;24.150;-110.320;2022-10-16T04:58:54;23.70;99.90
64501;DHT22;50874;24.150;-110.320;2022-10-16T05:01:20;23.70;99.90
64501;DHT22;50874;24.150;-110.320;2022-10-16T05:03:46;23.70;99.90
64501;DHT22;50874;24.150;-110.320;2022-10-16T05:06:13;23.60;99.90
64501;DHT22;50874;24.150;-110.320;2022-10-16T05:08:39;23.60;99.90
64501;DHT22;50874;24.150;-110.320;2022-10-16T05:11:06;23.60;99.90
64501;DHT22;50874;24.150;-110.320;2022-10-16T05:13:32;23.60;99.90
64501;DHT22;50874;24.150;-110.320;2022-10-16T05:15:59;23.50;99.90
64501;DHT22;50874;24.150;-110.320;2022-10-16T05:18:25;23.50;99.90
64501;DHT22;50874;24.150;-110.320;2022-10-16T05:20:51;23.50;99.90
64501;DHT22;50874;24.150;-110.320;2022-10-16T05:23:18;23.40;99.90
64501;DHT22;50874;24.150;-110.320;2022-10-16T05:25:55;23.40;99.90
64501;DHT22;50874;24.150;-110.320;2022-10-16T05:28:25;23.40;99.90
64501;DHT22;50874;24.150;-110.320;2022-10-16T05:30:51;23.40;99.90
64501;DHT22;50874;24.150;-110.320;2022-10-16T05:33:20;23.40;99.90
64501;DHT22;50874;24.150;-110.320;2022-10-16T05:35:47;23.30;99.90
64501;DHT22;50874;24.150;-110.320;2022-10-16T05:38:14;23.30;99.90
64501;DHT22;50874;24.150;-110.320;2022-10-16T05:40:40;23.30;99.90
64501;DHT22;50874;24.150;-110.320;2022-10-16T05:43:06;23.30;99.90
64501;DHT22;50874;24.150;-110.320;2022-10-16T05:45:33;23.20;99.90
64501;DHT22;50874;24.150;-110.320;2022-10-16T05:48:00;23.20;99.90
64501;DHT22;50874;24.150;-110.320;2022-10-16T05:50:27;23.20;99.90
64501;DHT22;50874;24.150;-110.320;2022-10-16T05:52:53;23.10;99.90
64501;DHT22;50874;24.150;-110.320;2022-10-16T05:55:20;23.10;99.90
64501;DHT22;50874;24.150;-110.320;2022-10-16T05:57:46;23.00;99.90
64501;DHT22;50874;24.150;-110.320;2022-10-16T06:00:13;22.90;99.90
64501;DHT22;50874;24.150;-110.320;2022-10-16T06:02:39;22.90;99.90
64501;DHT22;50874;24.150;-110.320;2022-10-16T06:05:06;22.80;99.90
64501;DHT22;50874;24.150;-110.320;2022-10-16T06:07:35;22.80;99.90
64501;DHT22;50874;24.150;-110.320;2022-10-16T06:10:02;22.70;99.90
64501;DHT22;50874;24.150;-110.320;2022-10-16T06:12:29;22.70;99.90
64501;DHT22;50874;24.150;-110.320;2022-10-16T06:14:55;22.60;99.90
64501;DHT22;50874;24.150;-110.320;2022-10-16T06:17:21;22.50;99.90
64501;DHT22;50874;24.150;-110.320;2022-10-16T06:19:48;22.50;99.90
64501;DHT22;50874;24.150;-110.320;2022-10-16T06:22:14;22.40;99.90
64501;DHT22;50874;24.150;-110.320;2022-10-16T06:24:41;22.30;99.90
64501;DHT22;50874;24.150;-110.320;2022-10-16T06:27:08;22.20;99.90
64501;DHT22;50874;24.150;-110.320;2022-10-16T06:29:34;22.10;99.90
64501;DHT22;50874;24.150;-110.320;2022-10-16T06:32:01;22.10;99.90
64501;DHT22;50874;24.150;-110.320;2022-10-16T06:34:27;22.00;99.90
64501;DHT22;50874;24.150;-110.320;2022-10-16T06:36:53;22.00;99.90
64501;DHT22;50874;24.150;-110.320;2022-10-16T06:39:21;22.00;99.90
64501;DHT22;50874;24.150;-110.320;2022-10-16T06:41:47;22.00;99.90
64501;DHT22;50874;24.150;-110.320;2022-10-16T06:44:14;21.90;99.90
64501;DHT22;50874;24.150;-110.320;2022-10-16T06:46:41;21.90;99.90
64501;DHT22;50874;24.150;-110.320;2022-10-16T06:49:07;21.80;99.90
64501;DHT22;50874;24.150;-110.320;2022-10-16T06:51:34;21.80;99.90
64501;DHT22;50874;24.150;-110.320;2022-10-16T06:54:02;21.80;99.90
64501;DHT22;50874;24.150;-110.320;2022-10-16T06:56:29;21.80;99.90
64501;DHT22;50874;24.150;-110.320;2022-10-16T06:58:56;21.70;99.90
64501;DHT22;50874;24.150;-110.320;2022-10-16T07:01:24;21.60;99.90
64501;DHT22;50874;24.150;-110.320;2022-10-16T07:03:51;21.60;99.90
64501;DHT22;50874;24.150;-110.320;2022-10-16T07:06:22;21.60;99.90
64501;DHT22;50874;24.150;-110.320;2022-10-16T07:08:48;21.60;99.90
64501;DHT22;50874;24.150;-110.320;2022-10-16T07:11:18;21.60;99.90
64501;DHT22;50874;24.150;-110.320;2022-10-16T07:13:46;21.60;99.90
64501;DHT22;50874;24.150;-110.320;2022-10-16T07:16:18;21.60;99.90
64501;DHT22;50874;24.150;-110.320;2022-10-16T07:18:45;21.60;99.90
64501;DHT22;50874;24.150;-110.320;2022-10-16T07:21:20;21.60;99.90
64501;DHT22;50874;24.150;-110.320;2022-10-16T07:23:55;21.50;99.90
64501;DHT22;50874;24.150;-110.320;2022-10-16T07:26:22;21.50;99.90
64501;DHT22;50874;24.150;-110.320;2022-10-16T07:28:49;21.50;99.90
64501;DHT22;50874;24.150;-110.320;2022-10-16T07:31:17;21.40;99.90
64501;DHT22;50874;24.150;-110.320;2022-10-16T07:33:45;21.40;99.90
64501;DHT22;50874;24.150;-110.320;2022-10-16T07:36:15;21.30;99.90
64501;DHT22;50874;24.150;-110.320;2022-10-16T07:38:42;21.40;99.90
64501;DHT22;50874;24.150;-110.320;2022-10-16T07:41:11;21.30;99.90
64501;DHT22;50874;24.150;-110.320;2022-10-16T07:43:39;21.30;99.90
64501;DHT22;50874;24.150;-110.320;2022-10-16T07:46:06;21.20;99.90
64501;DHT22;50874;24.150;-110.320;2022-10-16T07:48:34;21.20;99.90
64501;DHT22;50874;24.150;-110.320;2022-10-16T07:51:02;21.20;99.90
64501;DHT22;50874;24.150;-110.320;2022-10-16T07:53:28;21.20;99.90
64501;DHT22;50874;24.150;-110.320;2022-10-16T07:56:04;21.30;99.90
64501;DHT22;50874;24.150;-110.320;2022-10-16T07:58:33;21.30;99.90
64501;DHT22;50874;24.150;-110.320;2022-10-16T08:01:04;21.30;99.90
64501;DHT22;50874;24.150;-110.320;2022-10-16T08:03:31;21.40;99.90
64501;DHT22;50874;24.150;-110.320;2022-10-16T08:05:58;21.40;99.90
64501;DHT22;50874;24.150;-110.320;2022-10-16T08:08:25;21.40;99.90
64501;DHT22;50874;24.150;-110.320;2022-10-16T08:10:52;21.40;99.90
64501;DHT22;50874;24.150;-110.320;2022-10-16T08:13:19;21.40;99.90
64501;DHT22;50874;24.150;-110.320;2022-10-16T08:15:46;21.40;99.90
64501;DHT22;50874;24.150;-110.320;2022-10-16T08:18:14;21.40;99.90
64501;DHT22;50874;24.150;-110.320;2022-10-16T08:20:42;21.40;99.90
64501;DHT22;50874;24.150;-110.320;2022-10-16T08:23:13;21.40;99.90
64501;DHT22;50874;24.150;-110.320;2022-10-16T08:25:40;21.40;99.90
64501;DHT22;50874;24.150;-110.320;2022-10-16T08:28:09;21.40;99.90
64501;DHT22;50874;24.150;-110.320;2022-10-16T08:30:36;21.40;99.90
64501;DHT22;50874;24.150;-110.320;2022-10-16T08:33:03;21.40;99.90
64501;DHT22;50874;24.150;-110.320;2022-10-16T08:35:30;21.30;99.90
64501;DHT22;50874;24.150;-110.320;2022-10-16T08:37:56;21.30;99.90
64501;DHT22;50874;24.150;-110.320;2022-10-16T08:40:26;21.30;99.90
64501;DHT22;50874;24.150;-110.320;2022-10-16T08:48:46;21.20;99.90
64501;DHT22;50874;24.150;-110.320;2022-10-16T08:51:35;21.20;99.90
64501;DHT22;50874;24.150;-110.320;2022-10-16T08:54:10;21.10;99.90
64501;DHT22;50874;24.150;-110.320;2022-10-16T08:56:41;21.00;99.90
64501;DHT22;50874;24.150;-110.320;2022-10-16T08:59:10;20.90;99.90
64501;DHT22;50874;24.150;-110.320;2022-10-16T09:01:45;20.80;99.90
64501;DHT22;50874;24.150;-110.320;2022-10-16T09:04:53;20.80;99.90
64501;DHT22;50874;24.150;-110.320;2022-10-16T09:07:48;20.70;99.90
64501;DHT22;50874;24.150;-110.320;2022-10-16T09:18:33;20.50;99.90
64501;DHT22;50874;24.150;-110.320;2022-10-16T09:21:29;20.50;99.90
64501;DHT22;50874;24.150;-110.320;2022-10-16T09:23:57;20.40;99.90
64501;DHT22;50874;24.150;-110.320;2022-10-16T09:26:24;20.30;99.90
64501;DHT22;50874;24.150;-110.320;2022-10-16T09:28:52;20.20;99.90
64501;DHT22;50874;24.150;-110.320;2022-10-16T09:31:21;20.20;99.90
64501;DHT22;50874;24.150;-110.320;2022-10-16T09:33:55;20.20;99.90
64501;DHT22;50874;24.150;-110.320;2022-10-16T09:36:24;20.20;99.90
64501;DHT22;50874;24.150;-110.320;2022-10-16T09:39:03;20.20;99.90
64501;DHT22;50874;24.150;-110.320;2022-10-16T09:41:30;20.20;99.90
64501;DHT22;50874;24.150;-110.320;2022-10-16T09:44:02;20.20;99.90
64501;DHT22;50874;24.150;-110.320;2022-10-16T09:46:33;20.30;99.90
64501;DHT22;50874;24.150;-110.320;2022-10-16T09:49:22;20.30;99.90
64501;DHT22;50874;24.150;-110.320;2022-10-16T09:51:50;20.30;99.90
64501;DHT22;50874;24.150;-110.320;2022-10-16T09:54:21;20.30;99.90
64501;DHT22;50874;24.150;-110.320;2022-10-16T09:56:48;20.20;99.90
64501;DHT22;50874;24.150;-110.320;2022-10-16T09:59:20;20.20;99.90
64501;DHT22;50874;24.150;-110.320;2022-10-16T10:01:49;20.20;99.90
64501;DHT22;50874;24.150;-110.320;2022-10-16T10:04:21;20.20;99.90
64501;DHT22;50874;24.150;-110.320;2022-10-16T10:06:55;20.30;99.90
64501;DHT22;50874;24.150;-110.320;2022-10-16T10:12:02;20.50;99.90
64501;DHT22;50874;24.150;-110.320;2022-10-16T10:14:38;20.60;99.90
64501;DHT22;50874;24.150;-110.320;2022-10-16T10:22:44;20.80;99.90
64501;DHT22;50874;24.150;-110.320;2022-10-16T10:31:03;20.90;99.90
64501;DHT22;50874;24.150;-110.320;2022-10-16T10:33:43;20.80;99.90
64501;DHT22;50874;24.150;-110.320;2022-10-16T10:36:39;20.60;99.90
64501;DHT22;50874;24.150;-110.320;2022-10-16T10:39:26;20.50;99.90
64501;DHT22;50874;24.150;-110.320;2022-10-16T10:50:31;20.10;99.90
64501;DHT22;50874;24.150;-110.320;2022-10-16T10:55:48;20.10;99.90
64501;DHT22;50874;24.150;-110.320;2022-10-16T11:01:38;20.10;99.90
64501;DHT22;50874;24.150;-110.320;2022-10-16T11:04:29;20.00;99.90
64501;DHT22;50874;24.150;-110.320;2022-10-16T11:07:05;19.90;99.90
64501;DHT22;50874;24.150;-110.320;2022-10-16T11:09:42;19.90;99.90
64501;DHT22;50874;24.150;-110.320;2022-10-16T11:12:27;19.90;99.90
64501;DHT22;50874;24.150;-110.320;2022-10-16T11:15:07;20.00;99.90
64501;DHT22;50874;24.150;-110.320;2022-10-16T11:18:07;20.00;99.90
64501;DHT22;50874;24.150;-110.320;2022-10-16T11:20:50;20.00;99.90
64501;DHT22;50874;24.150;-110.320;2022-10-16T11:26:05;20.00;99.90
64501;DHT22;50874;24.150;-110.320;2022-10-16T11:29:02;20.00;99.90
64501;DHT22;50874;24.150;-110.320;2022-10-16T11:31:53;19.90;99.90
64501;DHT22;50874;24.150;-110.320;2022-10-16T11:34:22;19.90;99.90
64501;DHT22;50874;24.150;-110.320;2022-10-16T11:36:58;20.00;99.90
64501;DHT22;50874;24.150;-110.320;2022-10-16T11:39:29;20.00;99.90
64501;DHT22;50874;24.150;-110.320;2022-10-16T11:42:01;20.00;99.90
64501;DHT22;50874;24.150;-110.320;2022-10-16T11:47:58;20.10;99.90
64501;DHT22;50874;24.150;-110.320;2022-10-16T11:55:35;20.10;99.90
64501;DHT22;50874;24.150;-110.320;2022-10-16T11:58:37;20.10;99.90
64501;DHT22;50874;24.150;-110.320;2022-10-16T12:01:26;20.10;99.90
64501;DHT22;50874;24.150;-110.320;2022-10-16T12:06:55;20.10;99.90
64501;DHT22;50874;24.150;-110.320;2022-10-16T12:09:31;20.10;99.90
64501;DHT22;50874;24.150;-110.320;2022-10-16T12:11:58;20.10;99.90
64501;DHT22;50874;24.150;-110.320;2022-10-16T12:14:37;20.10;99.90
64501;DHT22;50874;24.150;-110.320;2022-10-16T12:17:24;20.10;99.90
64501;DHT22;50874;24.150;-110.320;2022-10-16T12:20:22;20.10;99.90
64501;DHT22;50874;24.150;-110.320;2022-10-16T12:22:52;20.10;99.90
64501;DHT22;50874;24.150;-110.320;2022-10-16T12:28:04;20.10;99.90
64501;DHT22;50874;24.150;-110.320;2022-10-16T12:30:34;20.00;99.90
64501;DHT22;50874;24.150;-110.320;2022-10-16T12:34:02;20.00;99.90
64501;DHT22;50874;24.150;-110.320;2022-10-16T12:36:35;20.00;99.90
64501;DHT22;50874;24.150;-110.320;2022-10-16T12:39:03;20.00;99.90
64501;DHT22;50874;24.150;-110.320;2022-10-16T12:41:34;19.90;99.90
64501;DHT22;50874;24.150;-110.320;2022-10-16T12:44:04;19.90;99.90
64501;DHT22;50874;24.150;-110.320;2022-10-16T12:51:42;19.80;99.90
64501;DHT22;50874;24.150;-110.320;2022-10-16T12:54:34;19.70;99.90
64501;DHT22;50874;24.150;-110.320;2022-10-16T13:18:48;19.60;99.90
64501;DHT22;50874;24.150;-110.320;2022-10-16T13:26:52;19.50;99.90
64501;DHT22;50874;24.150;-110.320;2022-10-16T13:29:20;19.40;99.90
64501;DHT22;50874;24.150;-110.320;2022-10-16T13:31:47;19.30;99.90
64501;DHT22;50874;24.150;-110.320;2022-10-16T13:34:17;19.30;99.90
64501;DHT22;50874;24.150;-110.320;2022-10-16T13:36:49;19.20;99.90
64501;DHT22;50874;24.150;-110.320;2022-10-16T13:39:25;19.20;99.90
64501;DHT22;50874;24.150;-110.320;2022-10-16T13:44:34;19.30;99.90
64501;DHT22;50874;24.150;-110.320;2022-10-16T13:47:02;19.30;99.90
64501;DHT22;50874;24.150;-110.320;2022-10-16T13:49:29;19.40;99.90
64501;DHT22;50874;24.150;-110.320;2022-10-16T13:51:57;19.50;99.90
64501;DHT22;50874;24.150;-110.320;2022-10-16T13:54:25;19.60;99.90
64501;DHT22;50874;24.150;-110.320;2022-10-16T13:56:52;19.70;99.90
64501;DHT22;50874;24.150;-110.320;2022-10-16T13:59:36;19.70;99.90
64501;DHT22;50874;24.150;-110.320;2022-10-16T14:02:26;19.90;99.90
64501;DHT22;50874;24.150;-110.320;2022-10-16T14:04:54;20.00;99.90
64501;DHT22;50874;24.150;-110.320;2022-10-16T14:07:25;20.00;99.90
64501;DHT22;50874;24.150;-110.320;2022-10-16T14:09:53;20.10;99.90
64501;DHT22;50874;24.150;-110.320;2022-10-16T14:12:22;20.10;99.90
64501;DHT22;50874;24.150;-110.320;2022-10-16T14:14:53;20.20;99.90
64501;DHT22;50874;24.150;-110.320;2022-10-16T14:17:28;20.30;99.90
64501;DHT22;50874;24.150;-110.320;2022-10-16T14:19:57;20.30;99.90
64501;DHT22;50874;24.150;-110.320;2022-10-16T14:22:37;20.30;99.90
64501;DHT22;50874;24.150;-110.320;2022-10-16T14:28:03;20.50;99.90
64501;DHT22;50874;24.150;-110.320;2022-10-16T14:30:29;20.60;99.90
64501;DHT22;50874;24.150;-110.320;2022-10-16T14:33:19;20.60;99.90
64501;DHT22;50874;24.150;-110.320;2022-10-16T14:35:46;20.50;99.90
64501;DHT22;50874;24.150;-110.320;2022-10-16T14:38:19;20.70;99.90
64501;DHT22;50874;24.150;-110.320;2022-10-16T14:40:48;20.70;99.90
64501;DHT22;50874;24.150;-110.320;2022-10-16T14:43:21;20.80;99.90
64501;DHT22;50874;24.150;-110.320;2022-10-16T14:45:55;21.00;99.90
64501;DHT22;50874;24.150;-110.320;2022-10-16T14:48:23;21.10;99.90
64501;DHT22;50874;24.150;-110.320;2022-10-16T14:50:50;21.10;99.90
64501;DHT22;50874;24.150;-110.320;2022-10-16T14:53:17;21.30;99.90
64501;DHT22;50874;24.150;-110.320;2022-10-16T14:55:43;21.40;99.90
64501;DHT22;50874;24.150;-110.320;2022-10-16T14:58:30;21.70;99.90
64501;DHT22;50874;24.150;-110.320;2022-10-16T15:00:57;22.20;99.90
64501;DHT22;50874;24.150;-110.320;2022-10-16T15:03:23;22.60;99.90
64501;DHT22;50874;24.150;-110.320;2022-10-16T15:05:49;23.20;99.90
64501;DHT22;50874;24.150;-110.320;2022-10-16T15:08:16;23.90;99.90
64501;DHT22;50874;24.150;-110.320;2022-10-16T15:10:43;24.50;99.90
64501;DHT22;50874;24.150;-110.320;2022-10-16T15:13:14;25.10;99.90
64501;DHT22;50874;24.150;-110.320;2022-10-16T15:15:45;25.50;99.90
64501;DHT22;50874;24.150;-110.320;2022-10-16T15:18:13;25.90;99.90
64501;DHT22;50874;24.150;-110.320;2022-10-16T15:20:41;26.40;99.90
64501;DHT22;50874;24.150;-110.320;2022-10-16T15:23:16;26.80;99.20
64501;DHT22;50874;24.150;-110.320;2022-10-16T15:25:50;27.10;98.40
64501;DHT22;50874;24.150;-110.320;2022-10-16T15:28:18;27.40;97.80
64501;DHT22;50874;24.150;-110.320;2022-10-16T15:30:45;27.60;97.60
64501;DHT22;50874;24.150;-110.320;2022-10-16T15:33:26;27.80;96.90
64501;DHT22;50874;24.150;-110.320;2022-10-16T15:36:00;28.20;96.10
64501;DHT22;50874;24.150;-110.320;2022-10-16T15:38:27;28.30;95.80
64501;DHT22;50874;24.150;-110.320;2022-10-16T15:40:54;28.50;95.60
64501;DHT22;50874;24.150;-110.320;2022-10-16T15:43:21;28.40;95.00
64501;DHT22;50874;24.150;-110.320;2022-10-16T15:46:03;28.80;94.80
64501;DHT22;50874;24.150;-110.320;2022-10-16T15:48:30;29.00;94.10
64501;DHT22;50874;24.150;-110.320;2022-10-16T15:50:57;29.10;93.30
64501;DHT22;50874;24.150;-110.320;2022-10-16T15:53:24;29.10;93.20
64501;DHT22;50874;24.150;-110.320;2022-10-16T15:55:50;29.10;93.00
64501;DHT22;50874;24.150;-110.320;2022-10-16T15:58:17;29.40;92.50
64501;DHT22;50874;24.150;-110.320;2022-10-16T16:00:43;29.80;92.20
64501;DHT22;50874;24.150;-110.320;2022-10-16T16:03:10;30.00;91.50
64501;DHT22;50874;24.150;-110.320;2022-10-16T16:05:38;30.30;90.90
64501;DHT22;50874;24.150;-110.320;2022-10-16T16:08:05;30.50;90.40
64501;DHT22;50874;24.150;-110.320;2022-10-16T16:10:32;30.60;90.50
64501;DHT22;50874;24.150;-110.320;2022-10-16T16:12:58;30.80;90.40
64501;DHT22;50874;24.150;-110.320;2022-10-16T16:15:25;31.30;90.10
64501;DHT22;50874;24.150;-110.320;2022-10-16T16:17:51;31.60;88.80
64501;DHT22;50874;24.150;-110.320;2022-10-16T16:20:18;31.80;87.50
64501;DHT22;50874;24.150;-110.320;2022-10-16T16:22:44;32.20;87.40
64501;DHT22;50874;24.150;-110.320;2022-10-16T16:25:11;31.90;86.10
64501;DHT22;50874;24.150;-110.320;2022-10-16T16:27:37;32.00;86.00
64501;DHT22;50874;24.150;-110.320;2022-10-16T16:30:06;32.10;86.00
64501;DHT22;50874;24.150;-110.320;2022-10-16T16:32:34;32.40;84.70
64501;DHT22;50874;24.150;-110.320;2022-10-16T16:35:01;32.70;84.20
64501;DHT22;50874;24.150;-110.320;2022-10-16T16:37:28;32.80;83.30
64501;DHT22;50874;24.150;-110.320;2022-10-16T16:39:55;32.90;82.90
64501;DHT22;50874;24.150;-110.320;2022-10-16T16:42:25;33.20;82.50
64501;DHT22;50874;24.150;-110.320;2022-10-16T16:44:52;33.20;82.50
64501;DHT22;50874;24.150;-110.320;2022-10-16T16:47:19;33.40;82.00
64501;DHT22;50874;24.150;-110.320;2022-10-16T16:49:45;34.00;80.90
64501;DHT22;50874;24.150;-110.320;2022-10-16T16:52:14;33.80;80.90
64501;DHT22;50874;24.150;-110.320;2022-10-16T16:54:41;33.70;80.80
64501;DHT22;50874;24.150;-110.320;2022-10-16T16:57:08;34.00;80.60
64501;DHT22;50874;24.150;-110.320;2022-10-16T16:59:34;33.80;80.20
64501;DHT22;50874;24.150;-110.320;2022-10-16T17:02:01;34.20;80.00
64501;DHT22;50874;24.150;-110.320;2022-10-16T17:04:28;34.20;80.10